createdAt,value
2019-04-20T00:00:51.049Z,14.90
2019-04-20T00:03:18.065Z,14.90
2019-04-20T00:05:47.098Z,14.80
2019-04-20T00:08:22.592Z,14.70
2019-04-20T00:10:56.098Z,14.60
2019-04-20T00:13:28.580Z,14.50
2019-04-20T00:15:49.284Z,14.50
2019-04-20T00:18:19.196Z,14.50
2019-04-20T00:21:00.106Z,14.50
2019-04-20T00:23:41.516Z,14.30
2019-04-20T00:27:04.726Z,14.30
2019-04-20T00:29:25.503Z,14.20
2019-04-20T00:31:50.422Z,14.00
2019-04-20T00:34:16.827Z,14.00
2019-04-20T00:36:39.351Z,14.00
2019-04-20T00:39:11.417Z,13.90
2019-04-20T00:41:42.413Z,13.80
2019-04-20T00:44:17.113Z,13.80
2019-04-20T00:46:51.229Z,13.70
2019-04-20T00:49:29.271Z,13.80
2019-04-20T00:52:30.742Z,13.80
2019-04-20T00:54:33.354Z,13.70
2019-04-20T00:57:13.529Z,13.60
2019-04-20T00:59:59.127Z,13.50
2019-04-20T01:02:21.220Z,13.50
2019-04-20T01:04:58.586Z,13.50
2019-04-20T01:07:39.509Z,13.50
2019-04-20T01:10:09.195Z,13.40
2019-04-20T01:12:40.266Z,13.40
2019-04-20T01:15:11.854Z,13.40
2019-04-20T01:17:41.463Z,13.40
2019-04-20T01:20:11.914Z,13.30
2019-04-20T01:22:50.437Z,13.20
2019-04-20T01:25:19.557Z,13.20
2019-04-20T01:28:04.599Z,13.20
2019-04-20T01:30:22.536Z,13.20
2019-04-20T01:33:00.192Z,13.20
2019-04-20T01:35:30.033Z,13.20
2019-04-20T01:38:07.325Z,13.10
2019-04-20T01:40:17.314Z,13.00
2019-04-20T01:42:46.774Z,13.00
2019-04-20T01:45:22.499Z,12.90
2019-04-20T01:47:51.457Z,12.80
2019-04-20T01:50:24.487Z,12.80
2019-04-20T01:53:01.764Z,12.80
2019-04-20T01:55:39.108Z,12.70
2019-04-20T01:58:17.653Z,12.70
2019-04-20T02:01:09.720Z,12.70
2019-04-20T02:03:52.497Z,12.70
2019-04-20T02:06:23.439Z,12.70
2019-04-20T02:08:58.327Z,12.60
2019-04-20T02:11:29.636Z,12.50
2019-04-20T02:13:57.265Z,12.60
2019-04-20T02:16:33.086Z,12.60
2019-04-20T02:19:10.772Z,12.50
2019-04-20T02:21:44.994Z,12.50
2019-04-20T02:24:02.303Z,12.50
2019-04-20T02:26:28.182Z,12.50
2019-04-20T02:29:37.434Z,12.50
2019-04-20T02:34:39.857Z,12.40
2019-04-20T02:37:16.879Z,12.20
2019-04-20T02:42:19.692Z,12.20
2019-04-20T02:47:14.010Z,12.00
2019-04-20T02:49:40.457Z,12.00
2019-04-20T02:52:13.668Z,12.00
2019-04-20T02:54:45.021Z,12.00
2019-04-20T03:02:06.446Z,11.80
2019-04-20T03:04:28.348Z,11.80
2019-04-20T03:07:04.151Z,11.80
2019-04-20T03:09:44.240Z,11.80
2019-04-20T03:12:10.648Z,11.70
2019-04-20T03:14:34.969Z,11.70
2019-04-20T03:17:10.405Z,11.70
2019-04-20T03:19:31.381Z,11.70
2019-04-20T03:22:16.122Z,11.60
2019-04-20T03:24:50.095Z,11.60
2019-04-20T03:27:25.052Z,11.60
2019-04-20T03:30:25.513Z,11.60
2019-04-20T03:35:20.401Z,11.50
2019-04-20T03:38:00.059Z,11.40
2019-04-20T03:40:09.902Z,11.40
2019-04-20T03:42:24.508Z,11.40
2019-04-20T03:45:00.485Z,11.40
2019-04-20T03:47:35.869Z,11.40
2019-04-20T03:50:21.910Z,11.30
2019-04-20T03:52:49.242Z,11.30
2019-04-20T03:55:36.682Z,11.30
2019-04-20T03:58:28.772Z,11.30
2019-04-20T04:01:43.340Z,11.20
2019-04-20T04:04:05.387Z,11.30
2019-04-20T04:06:26.469Z,11.20
2019-04-20T04:08:57.589Z,11.20
2019-04-20T04:11:35.206Z,11.10
2019-04-20T04:13:48.533Z,11.10
2019-04-20T04:16:20.730Z,11.00
2019-04-20T04:19:00.524Z,10.80
2019-04-20T04:21:29.645Z,10.70
2019-04-20T04:24:05.886Z,10.80
2019-04-20T04:26:36.706Z,10.90
2019-04-20T04:29:12.669Z,10.90
2019-04-20T04:31:45.727Z,10.90
2019-04-20T04:34:10.155Z,10.90
2019-04-20T04:36:44.498Z,10.90
2019-04-20T04:39:19.262Z,10.90
2019-04-20T04:41:39.824Z,10.90
2019-04-20T04:44:11.249Z,10.80
2019-04-20T04:46:26.907Z,10.90
2019-04-20T04:49:06.824Z,10.90
2019-04-20T04:51:38.480Z,10.80
2019-04-20T04:54:03.695Z,10.80
2019-04-20T04:56:29.106Z,10.80
2019-04-20T04:59:00.200Z,10.80
2019-04-20T05:01:32.744Z,10.80
2019-04-20T05:04:21.324Z,10.80
2019-04-20T05:06:43.367Z,10.80
2019-04-20T05:09:05.310Z,10.80
2019-04-20T05:11:32.445Z,10.90
2019-04-20T05:14:06.673Z,11.00
2019-04-20T05:16:49.930Z,11.00
2019-04-20T05:19:26.085Z,11.10
2019-04-20T05:22:06.718Z,11.10
2019-04-20T05:24:34.893Z,11.10
2019-04-20T05:27:30.136Z,11.30
2019-04-20T05:29:41.388Z,11.50
2019-04-20T05:32:16.350Z,11.60
2019-04-20T05:35:05.324Z,11.70
2019-04-20T05:37:45.781Z,11.80
2019-04-20T05:40:04.772Z,11.90
2019-04-20T05:42:35.928Z,12.00
2019-04-20T05:45:01.863Z,12.10
2019-04-20T05:47:33.460Z,12.30
2019-04-20T05:50:01.198Z,12.40
2019-04-20T05:52:48.429Z,12.60
2019-04-20T05:55:10.226Z,12.70
2019-04-20T05:57:42.439Z,12.80
2019-04-20T06:00:13.634Z,13.00
2019-04-20T06:02:45.141Z,13.20
2019-04-20T06:05:20.910Z,13.30
2019-04-20T06:07:42.127Z,13.40
2019-04-20T06:10:18.944Z,13.60
2019-04-20T06:12:55.792Z,13.60
2019-04-20T06:15:22.374Z,13.60
2019-04-20T06:18:02.489Z,13.90
2019-04-20T06:20:35.824Z,14.20
2019-04-20T06:23:34.590Z,14.50
2019-04-20T06:28:26.809Z,15.00
2019-04-20T06:30:53.368Z,15.60
2019-04-20T06:34:16.319Z,16.00
2019-04-20T06:36:43.199Z,16.10
2019-04-20T06:39:13.377Z,16.30
2019-04-20T06:41:54.304Z,16.70
2019-04-20T06:44:16.487Z,17.10
2019-04-20T06:46:47.254Z,17.30
2019-04-20T06:49:18.330Z,17.50
2019-04-20T06:52:10.126Z,17.50
2019-04-20T06:55:08.776Z,17.60
2019-04-20T06:57:43.223Z,18.30
2019-04-20T07:00:18.004Z,19.60
2019-04-20T07:05:11.902Z,21.10
2019-04-20T07:07:45.050Z,21.40
2019-04-20T07:12:42.502Z,21.90
2019-04-20T07:15:09.741Z,22.40
2019-04-20T07:17:54.737Z,22.80
2019-04-20T07:20:28.607Z,22.50
2019-04-20T07:23:13.551Z,22.10
2019-04-20T07:25:37.400Z,22.70
2019-04-20T07:28:05.452Z,23.20
2019-04-20T07:30:35.147Z,23.30
2019-04-20T07:33:10.114Z,23.70
2019-04-20T07:35:35.674Z,24.60
2019-04-20T07:40:38.406Z,25.60
2019-04-20T07:43:02.932Z,25.60
2019-04-20T07:45:40.106Z,24.80
2019-04-20T07:50:34.706Z,25.70
2019-04-20T07:53:09.243Z,26.60
2019-04-20T07:56:01.023Z,27.00
2019-04-20T07:58:07.340Z,26.90
2019-04-20T08:00:59.935Z,27.50
2019-04-20T08:06:10.047Z,28.50
2019-04-20T08:08:48.990Z,28.40
2019-04-20T08:11:21.603Z,28.60
2019-04-20T08:13:58.704Z,29.30
2019-04-20T08:16:33.105Z,29.40
2019-04-20T08:18:55.458Z,29.90
2019-04-20T08:21:33.265Z,30.20
2019-04-20T08:23:55.394Z,29.10
2019-04-20T08:26:17.622Z,29.80
2019-04-20T08:28:52.790Z,30.70
2019-04-20T08:31:55.915Z,31.20
2019-04-20T08:34:34.093Z,30.90
2019-04-20T08:37:01.371Z,31.40
2019-04-20T08:42:00.457Z,32.10
2019-04-20T08:49:35.038Z,32.90
2019-04-20T08:52:33.223Z,33.50
2019-04-20T08:54:31.283Z,33.40
2019-04-20T08:56:52.156Z,33.20
2019-04-20T08:59:17.166Z,33.70
2019-04-20T09:01:46.820Z,33.30
2019-04-20T09:04:21.997Z,34.40
2019-04-20T09:07:02.657Z,34.60
2019-04-20T09:09:48.336Z,34.70
2019-04-20T09:12:06.443Z,34.80
2019-04-20T09:14:21.342Z,33.90
2019-04-20T09:16:59.774Z,35.50
2019-04-20T09:19:38.495Z,35.40
2019-04-20T09:22:28.269Z,36.10
2019-04-20T09:25:15.589Z,35.30
2019-04-20T09:27:29.190Z,35.90
2019-04-20T09:30:04.571Z,37.00
2019-04-20T09:32:34.282Z,37.50
2019-04-20T09:35:13.575Z,37.90
2019-04-20T09:37:48.259Z,38.70
2019-04-20T09:40:25.506Z,37.60
2019-04-20T09:42:54.264Z,37.80
2019-04-20T09:45:37.508Z,39.00
2019-04-20T09:48:02.126Z,39.10
2019-04-20T09:50:49.991Z,37.70
2019-04-20T09:53:19.769Z,37.00
2019-04-20T09:55:50.653Z,36.60
2019-04-20T09:58:15.471Z,35.80
2019-04-20T10:00:59.431Z,36.70
2019-04-20T10:03:14.594Z,37.20
2019-04-20T10:05:43.724Z,38.60
2019-04-20T10:08:13.682Z,38.70
2019-04-20T10:10:45.581Z,38.90
2019-04-20T10:13:15.301Z,37.70
2019-04-20T10:15:45.814Z,36.90
2019-04-20T10:18:15.003Z,37.20
2019-04-20T10:20:45.214Z,37.70
2019-04-20T10:23:14.457Z,37.80
2019-04-20T10:25:44.604Z,38.40
2019-04-20T10:28:13.950Z,39.30
2019-04-20T10:30:44.322Z,38.00
2019-04-20T10:33:13.739Z,39.10
2019-04-20T10:35:43.607Z,38.50
2019-04-20T10:38:17.911Z,38.40
2019-04-20T10:41:01.003Z,38.80
2019-04-20T10:43:26.051Z,38.70
2019-04-20T10:45:55.175Z,38.70
2019-04-20T10:48:24.190Z,38.10
2019-04-20T10:50:53.186Z,38.10
2019-04-20T10:53:23.710Z,39.30
2019-04-20T10:55:53.525Z,39.90
2019-04-20T10:58:22.675Z,40.80
2019-04-20T11:00:51.910Z,40.40
2019-04-20T11:03:22.706Z,41.30
2019-04-20T11:05:52.984Z,41.00
2019-04-20T11:08:22.523Z,40.10
2019-04-20T11:11:03.460Z,39.10
2019-04-20T11:13:23.445Z,37.00
2019-04-20T11:15:52.790Z,36.50
2019-04-20T11:18:21.846Z,37.50
2019-04-20T11:20:51.116Z,38.00
2019-04-20T11:23:20.407Z,37.70
2019-04-20T11:25:50.521Z,37.50
2019-04-20T11:28:19.917Z,37.30
2019-04-20T11:30:50.129Z,38.30
2019-04-20T11:33:20.325Z,36.10
2019-04-20T11:35:49.932Z,35.70
2019-04-20T11:38:19.708Z,35.50
2019-04-20T11:41:02.759Z,35.50
2019-04-20T11:43:19.836Z,35.60
2019-04-20T11:45:48.999Z,37.10
2019-04-20T11:48:19.155Z,36.90
2019-04-20T11:50:49.475Z,38.00
2019-04-20T11:53:19.523Z,38.40
2019-04-20T11:55:48.871Z,38.70
2019-04-20T11:58:18.095Z,37.60
2019-04-20T12:00:57.319Z,38.00
2019-04-20T12:03:31.099Z,39.70
2019-04-20T12:05:57.418Z,39.60
2019-04-20T12:08:24.984Z,39.50
2019-04-20T12:10:58.543Z,40.30
2019-04-20T12:13:26.751Z,40.00
2019-04-20T12:15:56.101Z,40.80
2019-04-20T12:18:25.480Z,41.10
2019-04-20T12:20:54.830Z,41.20
2019-04-20T12:23:24.492Z,40.00
2019-04-20T12:25:54.387Z,39.80
2019-04-20T12:28:23.762Z,39.80
2019-04-20T12:30:58.636Z,40.40
2019-04-20T12:33:24.349Z,40.80
2019-04-20T12:35:54.243Z,40.70
2019-04-20T12:38:23.721Z,41.60
2019-04-20T12:40:52.859Z,41.40
2019-04-20T12:43:21.786Z,41.20
2019-04-20T12:45:51.734Z,40.20
2019-04-20T12:48:21.760Z,38.80
2019-04-20T12:50:50.889Z,37.80
2019-04-20T12:53:20.451Z,37.90
2019-04-20T12:55:50.727Z,38.50
2019-04-20T12:58:20.877Z,38.30
2019-04-20T13:00:52.368Z,38.90
2019-04-20T13:03:21.661Z,38.60
2019-04-20T13:05:51.998Z,39.60
2019-04-20T13:08:29.580Z,39.50
2019-04-20T13:11:00.411Z,39.20
2019-04-20T13:13:54.469Z,37.90
2019-04-20T13:16:28.399Z,37.90
2019-04-20T13:19:03.550Z,36.50
2019-04-20T13:21:32.774Z,35.60
2019-04-20T13:24:03.238Z,35.70
2019-04-20T13:26:33.208Z,35.50
2019-04-20T13:29:02.546Z,35.60
2019-04-20T13:31:31.713Z,35.40
2019-04-20T13:34:01.479Z,35.00
2019-04-20T13:36:30.757Z,34.80
2019-04-20T13:38:59.855Z,34.00
2019-04-20T13:41:29.811Z,33.60
2019-04-20T13:44:01.278Z,33.40
2019-04-20T13:46:31.143Z,32.70
2019-04-20T13:49:00.762Z,31.80
2019-04-20T13:51:30.858Z,31.80
2019-04-20T13:54:01.479Z,31.50
2019-04-20T13:56:32.251Z,31.60
2019-04-20T13:59:05.845Z,31.80
2019-04-20T14:01:52.899Z,31.50
2019-04-20T14:04:28.480Z,31.00
2019-04-20T14:06:59.478Z,30.50
2019-04-20T14:09:29.697Z,30.20
2019-04-20T14:12:13.014Z,30.00
2019-04-20T14:14:30.944Z,30.20
2019-04-20T14:17:01.181Z,30.20
2019-04-20T14:19:31.431Z,30.40
2019-04-20T14:22:02.132Z,30.00
2019-04-20T14:24:31.350Z,29.50
2019-04-20T14:27:01.188Z,29.70
2019-04-20T14:29:30.683Z,29.70
2019-04-20T14:32:02.286Z,29.60
2019-04-20T14:34:31.127Z,29.60
2019-04-20T14:37:00.412Z,29.50
2019-04-20T14:39:30.290Z,29.60
2019-04-20T14:42:00.448Z,29.60
2019-04-20T14:44:29.900Z,29.50
2019-04-20T14:47:00.086Z,29.50
2019-04-20T14:49:30.522Z,29.50
2019-04-20T14:52:01.545Z,29.70
2019-04-20T14:54:31.844Z,29.70
2019-04-20T14:57:01.394Z,29.50
2019-04-20T14:59:35.758Z,29.70
2019-04-20T15:02:10.774Z,29.40
2019-04-20T15:04:41.249Z,29.20
2019-04-20T15:07:10.824Z,29.30
2019-04-20T15:09:40.594Z,29.40
2019-04-20T15:12:10.892Z,28.90
2019-04-20T15:14:40.814Z,28.70
2019-04-20T15:17:12.153Z,28.90
2019-04-20T15:19:51.886Z,29.10
2019-04-20T15:22:33.837Z,29.20
2019-04-20T15:25:03.363Z,29.30
2019-04-20T15:27:33.180Z,29.20
2019-04-20T15:30:02.742Z,29.40
2019-04-20T15:32:33.288Z,29.50
2019-04-20T15:35:03.071Z,29.10
2019-04-20T15:37:33.064Z,28.90
2019-04-20T15:40:03.461Z,28.60
2019-04-20T15:42:36.260Z,28.50
2019-04-20T15:45:07.322Z,28.30
2019-04-20T15:47:36.451Z,28.30
2019-04-20T15:50:07.859Z,28.40
2019-04-20T15:52:42.482Z,28.50
2019-04-20T15:55:16.924Z,28.70
2019-04-20T15:57:38.756Z,28.60
2019-04-20T16:00:08.795Z,28.40
2019-04-20T16:02:47.715Z,27.70
2019-04-20T16:05:26.118Z,27.70
2019-04-20T16:08:00.122Z,27.60
2019-04-20T16:10:28.381Z,27.70
2019-04-20T16:13:05.612Z,28.00
2019-04-20T16:15:27.578Z,28.00
2019-04-20T16:17:57.163Z,28.00
2019-04-20T16:20:28.492Z,28.00
2019-04-20T16:22:56.671Z,28.00
2019-04-20T16:25:35.348Z,27.90
2019-04-20T16:28:05.710Z,27.70
2019-04-20T16:30:35.876Z,27.70
2019-04-20T16:33:06.303Z,27.60
2019-04-20T16:35:36.343Z,27.40
2019-04-20T16:38:06.657Z,27.60
2019-04-20T16:40:37.716Z,27.40
2019-04-20T16:43:17.716Z,27.20
2019-04-20T16:45:39.080Z,27.10
2019-04-20T16:48:10.374Z,26.80
2019-04-20T16:50:40.741Z,26.80
2019-04-20T16:53:10.757Z,26.80
2019-04-20T16:55:40.966Z,26.70
2019-04-20T16:58:10.210Z,26.50
2019-04-20T17:00:39.614Z,26.50
2019-04-20T17:03:09.121Z,26.70
2019-04-20T17:05:39.092Z,26.90
2019-04-20T17:08:08.959Z,26.90
2019-04-20T17:10:39.027Z,26.50
2019-04-20T17:13:09.307Z,26.30
2019-04-20T17:15:39.351Z,26.10
2019-04-20T17:18:09.551Z,25.70
2019-04-20T17:20:38.937Z,25.40
2019-04-20T17:23:10.512Z,25.50
2019-04-20T17:25:39.833Z,25.40
2019-04-20T17:28:22.679Z,25.30
2019-04-20T17:31:11.228Z,25.10
2019-04-20T17:33:54.639Z,25.00
2019-04-20T17:36:20.835Z,24.90
2019-04-20T17:38:52.554Z,24.70
2019-04-20T17:41:38.413Z,24.50
2019-04-20T17:44:05.471Z,24.30
2019-04-20T17:46:34.181Z,24.30
2019-04-20T17:49:07.766Z,24.20
2019-04-20T17:51:41.405Z,24.30
2019-04-20T17:54:22.259Z,24.20
2019-04-20T17:56:52.184Z,24.20
2019-04-20T17:59:22.271Z,23.80
2019-04-20T18:02:20.320Z,23.70
2019-04-20T18:05:22.971Z,23.60
2019-04-20T18:07:52.081Z,23.70
2019-04-20T18:10:22.557Z,23.60
2019-04-20T18:12:42.245Z,23.40
2019-04-20T18:15:29.452Z,23.50
2019-04-20T18:18:24.494Z,23.40
2019-04-20T18:20:57.342Z,23.20
2019-04-20T18:23:33.396Z,23.20
2019-04-20T18:26:17.258Z,23.10
2019-04-20T18:28:52.921Z,23.00
2019-04-20T18:31:15.904Z,23.00
2019-04-20T18:33:46.403Z,22.90
2019-04-20T18:36:23.607Z,22.80
2019-04-20T18:38:54.345Z,22.80
2019-04-20T18:41:28.303Z,22.60
2019-04-20T18:43:54.022Z,22.50
2019-04-20T18:46:44.048Z,22.60
2019-04-20T18:49:10.025Z,22.60
2019-04-20T18:51:23.731Z,22.50
2019-04-20T18:53:53.895Z,22.30
2019-04-20T18:56:32.278Z,22.10
2019-04-20T18:58:56.472Z,22.00
2019-04-20T19:01:33.297Z,22.10
2019-04-20T19:03:57.309Z,21.90
2019-04-20T19:06:27.733Z,21.80
2019-04-20T19:08:57.217Z,21.80
2019-04-20T19:11:27.607Z,21.70
2019-04-20T19:14:32.531Z,21.70
2019-04-20T19:17:09.040Z,21.80
2019-04-20T19:19:39.080Z,21.70
2019-04-20T19:22:01.913Z,21.70
2019-04-20T19:24:33.465Z,21.50
2019-04-20T19:27:07.838Z,21.50
2019-04-20T19:29:40.398Z,21.40
2019-04-20T19:32:20.425Z,21.30
2019-04-20T19:34:46.266Z,21.30
2019-04-20T19:37:17.156Z,21.30
2019-04-20T19:39:50.663Z,21.30
2019-04-20T19:42:18.026Z,21.20
2019-04-20T19:44:51.979Z,21.20
2019-04-20T19:47:28.525Z,21.10
2019-04-20T19:49:47.892Z,21.00
2019-04-20T19:52:50.397Z,21.00
2019-04-20T19:55:04.461Z,20.90
2019-04-20T19:57:35.796Z,20.80
2019-04-20T19:59:47.177Z,20.80
2019-04-20T20:02:13.824Z,20.70
2019-04-20T20:04:50.254Z,20.70
2019-04-20T20:07:24.682Z,20.70
2019-04-20T20:09:52.999Z,20.60
2019-04-20T20:12:19.055Z,20.50
2019-04-20T20:14:49.194Z,20.60
2019-04-20T20:17:40.252Z,20.50
2019-04-20T20:20:14.693Z,20.40
2019-04-20T20:22:27.856Z,20.50
2019-04-20T20:24:49.412Z,20.50
2019-04-20T20:27:25.418Z,20.40
2019-04-20T20:29:59.733Z,20.30
2019-04-20T20:32:39.028Z,20.30
2019-04-20T20:35:02.624Z,20.30
2019-04-20T20:37:34.744Z,20.20
2019-04-20T20:40:07.093Z,20.10
2019-04-20T20:42:34.346Z,20.00
2019-04-20T20:45:06.958Z,19.90
2019-04-20T20:47:58.956Z,19.80
2019-04-20T20:50:32.585Z,19.80
2019-04-20T20:52:44.027Z,19.80
2019-04-20T20:55:06.947Z,19.70
2019-04-20T20:57:40.896Z,19.70
2019-04-20T21:00:06.247Z,19.70
2019-04-20T21:02:43.893Z,19.70
2019-04-20T21:05:01.868Z,19.70
2019-04-20T21:07:31.283Z,19.80
2019-04-20T21:10:00.735Z,19.70
2019-04-20T21:12:30.577Z,19.70
2019-04-20T21:15:07.064Z,19.60
2019-04-20T21:17:40.722Z,19.60
2019-04-20T21:20:15.698Z,19.60
2019-04-20T21:22:53.439Z,19.60
2019-04-20T21:25:03.538Z,19.50
2019-04-20T21:27:32.875Z,19.40
2019-04-20T21:30:03.952Z,19.40
2019-04-20T21:32:41.705Z,19.30
2019-04-20T21:35:07.201Z,19.30
2019-04-20T21:37:34.847Z,19.30
2019-04-20T21:40:16.764Z,19.20
2019-04-20T21:42:44.555Z,18.90
2019-04-20T21:45:15.862Z,18.90
2019-04-20T21:47:41.089Z,18.90
2019-04-20T21:50:26.681Z,18.90
2019-04-20T21:53:09.718Z,18.80
2019-04-20T21:55:30.053Z,18.80
2019-04-20T21:58:01.896Z,18.70
2019-04-20T22:00:42.617Z,18.60
2019-04-20T22:03:11.336Z,18.60
2019-04-20T22:05:40.192Z,18.60
2019-04-20T22:08:14.027Z,18.60
2019-04-20T22:10:40.824Z,18.50
2019-04-20T22:13:10.078Z,18.30
2019-04-20T22:15:46.668Z,18.30
2019-04-20T22:18:14.692Z,18.30
2019-04-20T22:20:54.397Z,18.30
2019-04-20T22:23:30.508Z,18.30
2019-04-20T22:25:55.212Z,18.20
2019-04-20T22:28:13.957Z,18.20
2019-04-20T22:30:44.007Z,18.10
2019-04-20T22:33:31.428Z,18.00
2019-04-20T22:36:02.084Z,18.00
2019-04-20T22:38:56.663Z,18.00
2019-04-20T22:41:26.043Z,17.90
2019-04-20T22:43:54.705Z,17.70
2019-04-20T22:46:31.124Z,17.80
2019-04-20T22:49:14.399Z,17.80
2019-04-20T22:51:39.932Z,17.90
2019-04-20T22:54:14.515Z,18.00
2019-04-20T22:56:43.793Z,18.00
2019-04-20T22:59:07.728Z,18.10
2019-04-20T23:01:38.821Z,17.90
2019-04-20T23:03:59.479Z,17.50
2019-04-20T23:06:35.415Z,17.10
2019-04-20T23:09:03.942Z,17.10
2019-04-20T23:11:33.234Z,17.10
2019-04-20T23:14:00.849Z,16.90
2019-04-20T23:16:37.919Z,16.90
2019-04-20T23:19:02.433Z,16.90
2019-04-20T23:21:32.122Z,16.80
2019-04-20T23:24:06.350Z,16.70
2019-04-20T23:26:36.881Z,16.60
2019-04-20T23:29:03.083Z,16.60
2019-04-20T23:31:32.479Z,16.60
2019-04-20T23:34:09.200Z,16.50
2019-04-20T23:36:37.220Z,16.40
2019-04-20T23:39:04.636Z,16.30
2019-04-20T23:41:33.855Z,16.20
2019-04-20T23:44:15.305Z,16.10
2019-04-20T23:47:04.575Z,16.10
2019-04-20T23:49:42.873Z,16.00
2019-04-20T23:52:26.503Z,16.00
2019-04-20T23:54:34.060Z,15.80
2019-04-20T23:57:03.818Z,15.70
2019-04-20T23:59:39.211Z,15.70
